Terminal Aerodrome Forecast
Issued by NWS

Current Version | Previous Version | Text Only | Print | Product List | Glossary On
Versions: 1 2 3 4 5 6 7 8 9 10 11 12 13 14 15 16
000
FTUS43 KIND 301700
TAFHUF
TAF
KHUF 301729Z 3018/3118 20011G20KT P6SM VCSH SCT015
     FM302200 23008KT 6SM -TSRA BKN035CB
     FM310500 22006KT 4SM BR VCTS BKN010CB
     FM311500 19007KT P6SM VCTS OVC015CB=

USA.gov is the U.S. government's official web portal to all federal, state and local government web resources and services.